sensor_id;sensor_type;location;lat;lon;timestamp;pressure;altitude;pressure_sealevel;temperature;humidity
33845;BME280;20145;43.118;25.694;2023-02-20T00:00:40;99591.03;;;13.26;56.52
33845;BME280;20145;43.118;25.694;2023-02-20T00:03:06;99597.13;;;13.22;56.81
33845;BME280;20145;43.118;25.694;2023-02-20T00:05:33;99602.41;;;13.17;56.07
33845;BME280;20145;43.118;25.694;2023-02-20T00:07:58;99602.38;;;13.18;56.07
33845;BME280;20145;43.118;25.694;2023-02-20T00:10:24;99604.09;;;13.18;55.90
33845;BME280;20145;43.118;25.694;2023-02-20T00:12:51;99598.31;;;13.05;57.68
33845;BME280;20145;43.118;25.694;2023-02-20T00:15:17;99598.47;;;12.96;56.74
33845;BME280;20145;43.118;25.694;2023-02-20T00:17:44;99597.72;;;12.91;56.17
33845;BME280;20145;43.118;25.694;2023-02-20T00:20:24;99599.50;;;12.87;56.69
33845;BME280;20145;43.118;25.694;2023-02-20T00:22:51;99591.81;;;12.83;57.02
33845;BME280;20145;43.118;25.694;2023-02-20T00:25:18;99596.25;;;12.76;57.00
33845;BME280;20145;43.118;25.694;2023-02-20T00:27:44;99597.09;;;12.77;58.33
33845;BME280;20145;43.118;25.694;2023-02-20T00:30:21;99603.13;;;12.79;56.95
33845;BME280;20145;43.118;25.694;2023-02-20T00:32:49;99605.72;;;12.77;57.41
33845;BME280;20145;43.118;25.694;2023-02-20T00:35:16;99601.63;;;12.65;58.02
33845;BME280;20145;43.118;25.694;2023-02-20T00:37:42;99591.19;;;12.70;57.89
33845;BME280;20145;43.118;25.694;2023-02-20T00:40:09;99597.41;;;12.60;57.87
33845;BME280;20145;43.118;25.694;2023-02-20T00:42:35;99575.75;;;12.65;58.62
33845;BME280;20145;43.118;25.694;2023-02-20T00:45:00;99575.81;;;12.61;58.86
33845;BME280;20145;43.118;25.694;2023-02-20T00:47:26;99578.31;;;12.65;57.67
33845;BME280;20145;43.118;25.694;2023-02-20T00:49:51;99572.38;;;12.60;58.90
33845;BME280;20145;43.118;25.694;2023-02-20T00:52:17;99579.28;;;12.61;59.51
33845;BME280;20145;43.118;25.694;2023-02-20T00:54:42;99584.59;;;12.54;59.01
33845;BME280;20145;43.118;25.694;2023-02-20T00:57:08;99595.78;;;12.54;59.05
33845;BME280;20145;43.118;25.694;2023-02-20T00:59:34;99564.22;;;12.34;59.36
33845;BME280;20145;43.118;25.694;2023-02-20T01:01:59;99594.16;;;12.48;58.67
33845;BME280;20145;43.118;25.694;2023-02-20T01:04:25;99582.16;;;12.43;59.65
33845;BME280;20145;43.118;25.694;2023-02-20T01:06:50;99594.31;;;12.38;60.07
33845;BME280;20145;43.118;25.694;2023-02-20T01:09:16;99594.38;;;12.35;60.40
33845;BME280;20145;43.118;25.694;2023-02-20T01:11:43;99583.97;;;12.39;60.02
33845;BME280;20145;43.118;25.694;2023-02-20T01:14:09;99598.72;;;12.34;59.78
33845;BME280;20145;43.118;25.694;2023-02-20T01:16:35;99592.75;;;12.29;60.21
33845;BME280;20145;43.118;25.694;2023-02-20T01:19:01;99581.56;;;12.28;59.46
33845;BME280;20145;43.118;25.694;2023-02-20T01:21:26;99585.88;;;12.26;60.79
33845;BME280;20145;43.118;25.694;2023-02-20T01:23:52;99591.22;;;12.17;60.81
33845;BME280;20145;43.118;25.694;2023-02-20T01:26:17;99581.72;;;12.16;60.73
33845;BME280;20145;43.118;25.694;2023-02-20T01:28:45;99584.31;;;12.16;60.92
33845;BME280;20145;43.118;25.694;2023-02-20T01:31:14;99574.13;;;12.07;60.97
33845;BME280;20145;43.118;25.694;2023-02-20T01:33:41;99589.59;;;12.10;61.29
33845;BME280;20145;43.118;25.694;2023-02-20T01:36:07;99585.25;;;12.11;61.13
33845;BME280;20145;43.118;25.694;2023-02-20T01:38:33;99583.56;;;12.11;61.10
33845;BME280;20145;43.118;25.694;2023-02-20T01:40:59;99563.84;;;12.02;60.79
33845;BME280;20145;43.118;25.694;2023-02-20T01:43:25;99555.22;;;12.02;61.43
33845;BME280;20145;43.118;25.694;2023-02-20T01:45:50;99587.81;;;12.14;61.35
33845;BME280;20145;43.118;25.694;2023-02-20T01:48:21;99577.47;;;12.14;61.47
33845;BME280;20145;43.118;25.694;2023-02-20T01:50:47;99572.47;;;12.03;60.98
33845;BME280;20145;43.118;25.694;2023-02-20T01:53:17;99579.28;;;12.07;61.03
33845;BME280;20145;43.118;25.694;2023-02-20T01:55:58;99569.22;;;11.90;62.24
33845;BME280;20145;43.118;25.694;2023-02-20T01:58:36;99576.84;;;11.98;61.62
33845;BME280;20145;43.118;25.694;2023-02-20T02:01:03;99588.16;;;11.92;62.18
33845;BME280;20145;43.118;25.694;2023-02-20T02:03:33;99572.53;;;11.97;61.65
33845;BME280;20145;43.118;25.694;2023-02-20T02:06:02;99569.84;;;12.04;60.80
33845;BME280;20145;43.118;25.694;2023-02-20T02:08:30;99575.97;;;11.99;61.34
33845;BME280;20145;43.118;25.694;2023-02-20T02:11:38;99587.09;;;12.04;61.10
33845;BME280;20145;43.118;25.694;2023-02-20T02:13:56;99586.25;;;12.03;59.85
33845;BME280;20145;43.118;25.694;2023-02-20T02:33:22;99587.31;;;11.90;59.63
33845;BME280;20145;43.118;25.694;2023-02-20T02:47:06;99565.78;;;11.88;60.10
33845;BME280;20145;43.118;25.694;2023-02-20T02:52:21;99578.88;;;11.74;60.60
33845;BME280;20145;43.118;25.694;2023-02-20T02:55:07;99588.31;;;11.77;61.15
33845;BME280;20145;43.118;25.694;2023-02-20T02:57:33;99592.66;;;11.76;60.97
33845;BME280;20145;43.118;25.694;2023-02-20T03:00:04;99590.06;;;11.78;61.23
33845;BME280;20145;43.118;25.694;2023-02-20T03:02:40;99592.59;;;11.79;61.80
33845;BME280;20145;43.118;25.694;2023-02-20T03:05:09;99596.91;;;11.79;62.62
33845;BME280;20145;43.118;25.694;2023-02-20T03:07:38;99601.25;;;11.77;61.41
33845;BME280;20145;43.118;25.694;2023-02-20T03:10:10;99597.72;;;11.82;61.73
33845;BME280;20145;43.118;25.694;2023-02-20T03:12:48;99601.16;;;11.84;60.63
33845;BME280;20145;43.118;25.694;2023-02-20T03:15:34;99600.38;;;11.78;60.34
33845;BME280;20145;43.118;25.694;2023-02-20T03:20:56;99596.91;;;11.79;59.72
33845;BME280;20145;43.118;25.694;2023-02-20T03:23:26;99582.34;;;11.72;60.70
33845;BME280;20145;43.118;25.694;2023-02-20T03:26:08;99587.63;;;11.66;61.14
33845;BME280;20145;43.118;25.694;2023-02-20T03:28:41;99603.13;;;11.67;60.89
33845;BME280;20145;43.118;25.694;2023-02-20T03:31:41;99610.88;;;11.67;60.73
33845;BME280;20145;43.118;25.694;2023-02-20T03:34:12;99597.16;;;11.60;60.14
33845;BME280;20145;43.118;25.694;2023-02-20T03:37:03;99554.59;;;11.21;60.79
33845;BME280;20145;43.118;25.694;2023-02-20T03:39:52;99611.94;;;11.49;61.08
33845;BME280;20145;43.118;25.694;2023-02-20T03:42:42;99629.22;;;11.46;62.37
33845;BME280;20145;43.118;25.694;2023-02-20T03:45:30;99623.25;;;11.42;61.90
33845;BME280;20145;43.118;25.694;2023-02-20T03:47:59;99642.19;;;11.43;61.92
33845;BME280;20145;43.118;25.694;2023-02-20T03:50:27;99647.38;;;11.39;61.96
33845;BME280;20145;43.118;25.694;2023-02-20T03:52:53;99657.69;;;11.41;62.51
33845;BME280;20145;43.118;25.694;2023-02-20T03:55:20;99663.81;;;11.32;62.44
33845;BME280;20145;43.118;25.694;2023-02-20T03:57:50;99663.84;;;11.29;62.69
33845;BME280;20145;43.118;25.694;2023-02-20T04:00:20;99657.84;;;11.27;63.44
33845;BME280;20145;43.118;25.694;2023-02-20T04:02:49;99671.59;;;11.28;63.46
33845;BME280;20145;43.118;25.694;2023-02-20T04:05:22;99664.78;;;11.22;63.62
33845;BME280;20145;43.118;25.694;2023-02-20T04:07:55;99670.81;;;11.23;63.36
33845;BME280;20145;43.118;25.694;2023-02-20T04:10:25;99672.59;;;11.16;63.26
33845;BME280;20145;43.118;25.694;2023-02-20T04:12:53;99675.25;;;11.08;64.35
33845;BME280;20145;43.118;25.694;2023-02-20T04:15:21;99678.72;;;11.07;64.47
33845;BME280;20145;43.118;25.694;2023-02-20T04:17:58;99689.06;;;11.03;65.01
33845;BME280;20145;43.118;25.694;2023-02-20T04:20:24;99704.66;;;10.95;64.50
33845;BME280;20145;43.118;25.694;2023-02-20T04:22:52;99709.84;;;10.90;65.29
33845;BME280;20145;43.118;25.694;2023-02-20T04:28:11;99722.00;;;10.79;65.13
33845;BME280;20145;43.118;25.694;2023-02-20T04:30:38;99722.00;;;10.75;64.67
33845;BME280;20145;43.118;25.694;2023-02-20T04:33:04;99734.91;;;10.75;65.58
33845;BME280;20145;43.118;25.694;2023-02-20T04:35:30;99725.50;;;10.69;65.02
33845;BME280;20145;43.118;25.694;2023-02-20T04:37:56;99731.53;;;10.66;65.43
33845;BME280;20145;43.118;25.694;2023-02-20T04:40:23;99731.53;;;10.68;64.63
33845;BME280;20145;43.118;25.694;2023-02-20T04:42:48;99732.47;;;10.59;65.88
33845;BME280;20145;43.118;25.694;2023-02-20T04:45:14;99738.44;;;10.61;65.20
33845;BME280;20145;43.118;25.694;2023-02-20T04:47:43;99752.28;;;10.54;65.83
33845;BME280;20145;43.118;25.694;2023-02-20T04:50:12;99745.44;;;10.48;65.87
33845;BME280;20145;43.118;25.694;2023-02-20T04:52:38;99737.75;;;10.39;66.36
33845;BME280;20145;43.118;25.694;2023-02-20T04:55:06;99737.75;;;10.36;66.34
33845;BME280;20145;43.118;25.694;2023-02-20T04:57:31;99748.91;;;10.41;65.77
33845;BME280;20145;43.118;25.694;2023-02-20T04:59:57;99741.19;;;10.38;66.34
33845;BME280;20145;43.118;25.694;2023-02-20T05:02:22;99748.97;;;10.34;66.24
33845;BME280;20145;43.118;25.694;2023-02-20T05:04:49;99736.91;;;10.25;66.74
33845;BME280;20145;43.118;25.694;2023-02-20T05:07:16;99755.88;;;10.29;66.93
33845;BME280;20145;43.118;25.694;2023-02-20T05:09:42;99758.41;;;10.22;67.14
33845;BME280;20145;43.118;25.694;2023-02-20T05:12:08;99770.47;;;10.28;67.41
33845;BME280;20145;43.118;25.694;2023-02-20T05:14:35;99786.81;;;10.29;67.29
33845;BME280;20145;43.118;25.694;2023-02-20T05:17:00;99775.69;;;10.14;67.01
33845;BME280;20145;43.118;25.694;2023-02-20T05:19:26;99805.72;;;10.18;66.24
33845;BME280;20145;43.118;25.694;2023-02-20T05:21:51;99789.44;;;10.05;67.03
33845;BME280;20145;43.118;25.694;2023-02-20T05:24:36;99816.06;;;10.15;66.40
33845;BME280;20145;43.118;25.694;2023-02-20T05:27:01;99817.78;;;10.09;66.29
33845;BME280;20145;43.118;25.694;2023-02-20T05:29:27;99807.50;;;10.07;65.99
33845;BME280;20145;43.118;25.694;2023-02-20T05:31:52;99824.69;;;10.07;66.20
33845;BME280;20145;43.118;25.694;2023-02-20T05:34:18;99815.25;;;9.96;66.22
33845;BME280;20145;43.118;25.694;2023-02-20T05:36:45;99818.69;;;9.94;65.71
33845;BME280;20145;43.118;25.694;2023-02-20T05:39:11;99820.41;;;9.93;65.45
33845;BME280;20145;43.118;25.694;2023-02-20T05:41:36;99831.59;;;9.98;64.99
33845;BME280;20145;43.118;25.694;2023-02-20T05:44:02;99829.88;;;9.90;65.54
33845;BME280;20145;43.118;25.694;2023-02-20T05:46:28;99826.44;;;9.95;65.56
33845;BME280;20145;43.118;25.694;2023-02-20T05:48:54;99838.50;;;9.76;65.55
33845;BME280;20145;43.118;25.694;2023-02-20T05:51:24;99833.34;;;9.75;65.76
33845;BME280;20145;43.118;25.694;2023-02-20T05:53:49;99828.19;;;9.81;66.04
33845;BME280;20145;43.118;25.694;2023-02-20T05:56:15;99819.59;;;9.79;66.18
33845;BME280;20145;43.118;25.694;2023-02-20T05:58:42;99841.06;;;9.79;66.81
33845;BME280;20145;43.118;25.694;2023-02-20T06:01:14;99832.47;;;9.82;67.91
33845;BME280;20145;43.118;25.694;2023-02-20T06:03:40;99847.94;;;9.85;67.33
33845;BME280;20145;43.118;25.694;2023-02-20T06:06:06;99866.84;;;9.87;67.02
33845;BME280;20145;43.118;25.694;2023-02-20T06:08:32;99880.56;;;9.95;66.63
33845;BME280;20145;43.118;25.694;2023-02-20T06:10:58;99890.00;;;10.01;65.90
33845;BME280;20145;43.118;25.694;2023-02-20T06:13:23;99866.81;;;9.92;64.98
33845;BME280;20145;43.118;25.694;2023-02-20T06:15:49;99886.56;;;10.02;65.40
33845;BME280;20145;43.118;25.694;2023-02-20T06:18:14;99879.69;;;10.01;64.83
33845;BME280;20145;43.118;25.694;2023-02-20T06:20:40;99895.13;;;10.05;64.92
33845;BME280;20145;43.118;25.694;2023-02-20T06:23:06;99885.69;;;10.06;64.50
33845;BME280;20145;43.118;25.694;2023-02-20T06:25:31;99896.00;;;10.03;63.69
33845;BME280;20145;43.118;25.694;2023-02-20T06:27:57;99875.41;;;9.95;62.38
33845;BME280;20145;43.118;25.694;2023-02-20T06:30:23;99876.28;;;9.93;62.79
33845;BME280;20145;43.118;25.694;2023-02-20T06:32:49;99894.28;;;9.94;60.64
33845;BME280;20145;43.118;25.694;2023-02-20T06:35:14;99901.19;;;9.95;60.56
33845;BME280;20145;43.118;25.694;2023-02-20T06:37:40;99890.00;;;9.89;60.41
33845;BME280;20145;43.118;25.694;2023-02-20T06:40:06;99902.03;;;9.96;58.81
33845;BME280;20145;43.118;25.694;2023-02-20T06:42:31;99885.69;;;10.03;58.14
33845;BME280;20145;43.118;25.694;2023-02-20T06:44:57;99904.63;;;10.00;58.77
33845;BME280;20145;43.118;25.694;2023-02-20T06:47:23;99919.19;;;10.14;58.10
33845;BME280;20145;43.118;25.694;2023-02-20T06:49:48;99898.56;;;10.03;57.42
33845;BME280;20145;43.118;25.694;2023-02-20T06:52:14;99890.81;;;10.11;57.28
33845;BME280;20145;43.118;25.694;2023-02-20T06:54:39;99901.13;;;10.15;58.04
33845;BME280;20145;43.118;25.694;2023-02-20T06:57:05;99899.41;;;10.19;57.43
33845;BME280;20145;43.118;25.694;2023-02-20T06:59:31;99889.13;;;10.17;57.36
33845;BME280;20145;43.118;25.694;2023-02-20T07:01:57;99916.63;;;10.08;57.64
33845;BME280;20145;43.118;25.694;2023-02-20T07:04:24;99898.59;;;10.06;57.36
33845;BME280;20145;43.118;25.694;2023-02-20T07:06:53;99913.19;;;10.12;58.02
33845;BME280;20145;43.118;25.694;2023-02-20T07:09:19;99925.19;;;10.19;58.02
33845;BME280;20145;43.118;25.694;2023-02-20T07:11:46;99914.88;;;10.11;57.83
33845;BME280;20145;43.118;25.694;2023-02-20T07:14:14;99943.25;;;10.10;58.09
33845;BME280;20145;43.118;25.694;2023-02-20T07:16:40;99936.38;;;10.15;58.04
33845;BME280;20145;43.118;25.694;2023-02-20T07:19:05;99948.41;;;10.33;56.91
33845;BME280;20145;43.118;25.694;2023-02-20T07:21:31;99958.72;;;10.33;56.68
33845;BME280;20145;43.118;25.694;2023-02-20T07:23:57;99956.16;;;10.13;57.41
33845;BME280;20145;43.118;25.694;2023-02-20T07:26:26;99955.31;;;10.06;57.73
33845;BME280;20145;43.118;25.694;2023-02-20T07:28:53;99965.59;;;10.00;58.08
33845;BME280;20145;43.118;25.694;2023-02-20T07:31:19;99963.91;;;9.99;57.48
33845;BME280;20145;43.118;25.694;2023-02-20T07:33:45;99973.34;;;10.04;57.27
33845;BME280;20145;43.118;25.694;2023-02-20T07:36:12;99969.88;;;10.16;58.04
33845;BME280;20145;43.118;25.694;2023-02-20T07:38:38;99969.03;;;10.33;56.50
33845;BME280;20145;43.118;25.694;2023-02-20T07:41:05;99987.91;;;10.50;57.28
33845;BME280;20145;43.118;25.694;2023-02-20T07:43:31;99984.50;;;10.48;56.50
33845;BME280;20145;43.118;25.694;2023-02-20T07:45:56;99984.47;;;10.59;56.20
33845;BME280;20145;43.118;25.694;2023-02-20T07:48:22;99992.16;;;10.68;55.81
33845;BME280;20145;43.118;25.694;2023-02-20T07:50:48;99978.41;;;10.58;55.70
33845;BME280;20145;43.118;25.694;2023-02-20T07:53:14;99986.97;;;10.77;55.96
33845;BME280;20145;43.118;25.694;2023-02-20T07:55:40;99999.84;;;10.80;55.94
33845;BME280;20145;43.118;25.694;2023-02-20T07:58:06;99984.41;;;10.76;55.68
33845;BME280;20145;43.118;25.694;2023-02-20T08:00:31;99997.34;;;10.65;55.77
33845;BME280;20145;43.118;25.694;2023-02-20T08:02:57;100006.75;;;10.77;55.79
33845;BME280;20145;43.118;25.694;2023-02-20T08:05:24;100011.00;;;10.91;55.31
33845;BME280;20145;43.118;25.694;2023-02-20T08:07:50;100008.44;;;10.90;55.28
33845;BME280;20145;43.118;25.694;2023-02-20T08:10:19;100013.56;;;11.02;54.72
33845;BME280;20145;43.118;25.694;2023-02-20T08:12:46;100025.53;;;11.19;54.12
33845;BME280;20145;43.118;25.694;2023-02-20T08:15:12;100016.97;;;11.12;54.42
33845;BME280;20145;43.118;25.694;2023-02-20T08:17:39;100026.38;;;11.24;53.83
33845;BME280;20145;43.118;25.694;2023-02-20T08:20:06;100030.72;;;11.12;53.33
33845;BME280;20145;43.118;25.694;2023-02-20T08:22:33;100030.69;;;11.19;53.00
33845;BME280;20145;43.118;25.694;2023-02-20T08:24:58;100047.03;;;11.22;53.08
33845;BME280;20145;43.118;25.694;2023-02-20T08:27:25;100035.75;;;11.43;51.59
33845;BME280;20145;43.118;25.694;2023-02-20T08:29:52;100032.25;;;11.53;51.81
33845;BME280;20145;43.118;25.694;2023-02-20T08:32:17;100045.09;;;11.61;52.10
33845;BME280;20145;43.118;25.694;2023-02-20T08:34:43;100046.88;;;11.54;50.95
33845;BME280;20145;43.118;25.694;2023-02-20T08:37:08;100052.16;;;11.39;51.98
33845;BME280;20145;43.118;25.694;2023-02-20T08:39:35;100046.09;;;11.40;52.07
33845;BME280;20145;43.118;25.694;2023-02-20T08:42:01;100040.06;;;11.38;52.06
33845;BME280;20145;43.118;25.694;2023-02-20T08:44:26;100060.78;;;11.29;51.50
33845;BME280;20145;43.118;25.694;2023-02-20T08:46:52;100063.44;;;11.20;53.00
33845;BME280;20145;43.118;25.694;2023-02-20T08:49:18;100053.97;;;11.15;52.03
33845;BME280;20145;43.118;25.694;2023-02-20T08:51:45;100058.09;;;11.47;51.90
33845;BME280;20145;43.118;25.694;2023-02-20T08:54:11;100055.44;;;11.63;51.69
33845;BME280;20145;43.118;25.694;2023-02-20T08:56:37;100050.41;;;11.39;52.21
33845;BME280;20145;43.118;25.694;2023-02-20T08:59:03;100061.69;;;11.20;52.47
33845;BME280;20145;43.118;25.694;2023-02-20T09:01:29;100054.78;;;11.22;52.84
33845;BME280;20145;43.118;25.694;2023-02-20T09:03:54;100068.44;;;11.53;50.94
33845;BME280;20145;43.118;25.694;2023-02-20T09:06:20;100059.88;;;11.36;51.59
33845;BME280;20145;43.118;25.694;2023-02-20T09:08:49;100060.81;;;11.21;52.67
33845;BME280;20145;43.118;25.694;2023-02-20T09:11:14;100066.75;;;11.38;51.19
33845;BME280;20145;43.118;25.694;2023-02-20T09:13:42;100073.53;;;11.63;50.75
33845;BME280;20145;43.118;25.694;2023-02-20T09:16:08;100073.63;;;11.49;51.88
33845;BME280;20145;43.118;25.694;2023-02-20T09:18:33;100053.81;;;11.42;51.25
33845;BME280;20145;43.118;25.694;2023-02-20T09:20:59;100050.38;;;11.46;50.87
33845;BME280;20145;43.118;25.694;2023-02-20T09:23:24;100040.09;;;11.39;50.59
33845;BME280;20145;43.118;25.694;2023-02-20T09:25:51;100059.88;;;11.36;51.54
33845;BME280;20145;43.118;25.694;2023-02-20T09:28:18;100062.47;;;11.36;50.91
33845;BME280;20145;43.118;25.694;2023-02-20T09:30:43;100045.19;;;11.49;51.02
33845;BME280;20145;43.118;25.694;2023-02-20T09:33:09;100056.31;;;11.61;50.09
33845;BME280;20145;43.118;25.694;2023-02-20T09:35:35;100061.34;;;11.84;50.48
33845;BME280;20145;43.118;25.694;2023-02-20T09:38:00;100068.38;;;11.63;50.00
33845;BME280;20145;43.118;25.694;2023-02-20T09:40:28;100059.84;;;11.45;50.23
33845;BME280;20145;43.118;25.694;2023-02-20T09:45:46;100055.69;;;11.10;52.02
33845;BME280;20145;43.118;25.694;2023-02-20T09:53:24;100053.56;;;11.92;49.17
33845;BME280;20145;43.118;25.694;2023-02-20T09:55:51;100048.28;;;12.08;48.58
33845;BME280;20145;43.118;25.694;2023-02-20T10:01:18;100043.50;;;11.43;50.32
33845;BME280;20145;43.118;25.694;2023-02-20T10:03:53;100053.84;;;11.45;51.03
33845;BME280;20145;43.118;25.694;2023-02-20T10:06:21;100052.97;;;11.41;50.63
33845;BME280;20145;43.118;25.694;2023-02-20T10:08:49;100053.88;;;11.35;50.57
33845;BME280;20145;43.118;25.694;2023-02-20T10:17:22;100069.44;;;11.19;50.12
33845;BME280;20145;43.118;25.694;2023-02-20T10:25:56;100061.56;;;11.51;49.90
33845;BME280;20145;43.118;25.694;2023-02-20T10:28:24;100034.94;;;11.36;50.70
33845;BME280;20145;43.118;25.694;2023-02-20T10:33:25;100047.41;;;12.09;50.22
33845;BME280;20145;43.118;25.694;2023-02-20T10:36:11;100058.56;;;12.17;47.63
33845;BME280;20145;43.118;25.694;2023-02-20T10:38:49;100049.94;;;12.15;48.80
33845;BME280;20145;43.118;25.694;2023-02-20T10:41:18;100044.72;;;12.21;48.13
33845;BME280;20145;43.118;25.694;2023-02-20T10:49:00;100037.59;;;12.46;47.66
33845;BME280;20145;43.118;25.694;2023-02-20T10:51:34;100046.47;;;12.16;48.14
33845;BME280;20145;43.118;25.694;2023-02-20T10:54:08;100034.31;;;12.27;48.05
33845;BME280;20145;43.118;25.694;2023-02-20T10:56:47;100036.91;;;12.28;49.19
33845;BME280;20145;43.118;25.694;2023-02-20T11:01:51;100031.50;;;12.53;47.15
33845;BME280;20145;43.118;25.694;2023-02-20T11:04:33;100018.69;;;12.39;47.55
33845;BME280;20145;43.118;25.694;2023-02-20T11:07:13;100020.56;;;12.22;46.37
33845;BME280;20145;43.118;25.694;2023-02-20T11:09:39;100029.16;;;12.24;48.03
33845;BME280;20145;43.118;25.694;2023-02-20T11:12:06;100034.25;;;12.36;46.37
33845;BME280;20145;43.118;25.694;2023-02-20T11:14:45;100040.19;;;12.47;47.21
33845;BME280;20145;43.118;25.694;2023-02-20T11:17:13;100045.22;;;12.60;47.42
33845;BME280;20145;43.118;25.694;2023-02-20T11:19:48;100038.47;;;12.45;46.12
33845;BME280;20145;43.118;25.694;2023-02-20T11:22:15;100044.72;;;12.22;46.25
33845;BME280;20145;43.118;25.694;2023-02-20T11:24:43;100044.88;;;12.01;47.15
33845;BME280;20145;43.118;25.694;2023-02-20T11:27:13;100057.75;;;12.07;47.83
33845;BME280;20145;43.118;25.694;2023-02-20T11:29:54;100045.78;;;12.00;47.96
33845;BME280;20145;43.118;25.694;2023-02-20T11:37:39;100051.66;;;12.17;48.43
33845;BME280;20145;43.118;25.694;2023-02-20T11:40:13;100052.63;;;12.02;47.12
33845;BME280;20145;43.118;25.694;2023-02-20T11:42:39;100053.44;;;12.09;47.26
33845;BME280;20145;43.118;25.694;2023-02-20T11:45:25;100056.84;;;12.17;46.87
33845;BME280;20145;43.118;25.694;2023-02-20T11:48:11;100049.78;;;12.33;46.05
33845;BME280;20145;43.118;25.694;2023-02-20T11:50:42;100047.09;;;12.45;46.23
33845;BME280;20145;43.118;25.694;2023-02-20T11:55:49;100028.09;;;12.48;46.48
33845;BME280;20145;43.118;25.694;2023-02-20T11:58:30;100028.63;;;12.79;46.15
33845;BME280;20145;43.118;25.694;2023-02-20T12:00:56;100020.88;;;12.78;44.54
33845;BME280;20145;43.118;25.694;2023-02-20T12:03:25;100009.72;;;12.71;45.74
33845;BME280;20145;43.118;25.694;2023-02-20T12:05:53;100008.09;;;12.61;45.18
33845;BME280;20145;43.118;25.694;2023-02-20T12:11:04;100009.75;;;12.68;45.00
33845;BME280;20145;43.118;25.694;2023-02-20T12:13:37;100019.16;;;12.78;45.16
33845;BME280;20145;43.118;25.694;2023-02-20T12:18:59;100025.38;;;12.62;44.81
33845;BME280;20145;43.118;25.694;2023-02-20T12:29:50;100019.50;;;12.44;46.32
33845;BME280;20145;43.118;25.694;2023-02-20T12:32:34;100034.28;;;12.32;45.61
33845;BME280;20145;43.118;25.694;2023-02-20T12:46:08;100024.41;;;12.69;44.68
33845;BME280;20145;43.118;25.694;2023-02-20T12:51:46;100021.09;;;12.55;44.26
33845;BME280;20145;43.118;25.694;2023-02-20T12:54:39;100021.03;;;12.62;44.84
33845;BME280;20145;43.118;25.694;2023-02-20T12:59:58;100010.47;;;12.82;44.41
33845;BME280;20145;43.118;25.694;2023-02-20T13:02:38;100021.53;;;12.95;44.63
33845;BME280;20145;43.118;25.694;2023-02-20T13:05:10;100024.28;;;12.80;43.05
33845;BME280;20145;43.118;25.694;2023-02-20T13:07:55;100024.41;;;12.70;43.40
33845;BME280;20145;43.118;25.694;2023-02-20T13:10:24;100012.50;;;12.56;44.80
33845;BME280;20145;43.118;25.694;2023-02-20T13:12:51;100023.66;;;12.58;43.46
33845;BME280;20145;43.118;25.694;2023-02-20T13:20:36;100015.03;;;12.59;44.70
33845;BME280;20145;43.118;25.694;2023-02-20T13:25:44;99995.94;;;12.69;44.40
33845;BME280;20145;43.118;25.694;2023-02-20T13:29:03;100005.34;;;12.75;43.61
33845;BME280;20145;43.118;25.694;2023-02-20T13:31:17;100008.88;;;12.70;42.25
33845;BME280;20145;43.118;25.694;2023-02-20T13:34:24;100007.28;;;12.57;44.17
33845;BME280;20145;43.118;25.694;2023-02-20T13:36:47;100012.47;;;12.59;43.31
33845;BME280;20145;43.118;25.694;2023-02-20T13:42:03;100011.47;;;12.70;43.07
33845;BME280;20145;43.118;25.694;2023-02-20T13:47:02;100013.81;;;12.92;43.72
33845;BME280;20145;43.118;25.694;2023-02-20T13:52:38;100009.84;;;12.60;43.93
33845;BME280;20145;43.118;25.694;2023-02-20T13:57:48;100012.34;;;12.69;43.13
33845;BME280;20145;43.118;25.694;2023-02-20T14:00:46;100018.38;;;12.70;44.16
33845;BME280;20145;43.118;25.694;2023-02-20T14:03:19;100007.16;;;12.69;42.64
33845;BME280;20145;43.118;25.694;2023-02-20T14:05:46;100008.13;;;12.58;43.08
33845;BME280;20145;43.118;25.694;2023-02-20T14:08:24;100017.59;;;12.62;43.82
33845;BME280;20145;43.118;25.694;2023-02-20T14:10:50;100026.22;;;12.61;42.10
33845;BME280;20145;43.118;25.694;2023-02-20T14:13:20;100029.72;;;12.57;42.07
33845;BME280;20145;43.118;25.694;2023-02-20T14:15:50;100007.31;;;12.56;42.58
33845;BME280;20145;43.118;25.694;2023-02-20T14:18:18;100025.41;;;12.57;41.70
33845;BME280;20145;43.118;25.694;2023-02-20T14:20:45;100023.03;;;12.33;41.61
33845;BME280;20145;43.118;25.694;2023-02-20T14:23:23;100022.09;;;12.41;42.01
33845;BME280;20145;43.118;25.694;2023-02-20T14:28:46;100024.69;;;12.41;41.81
33845;BME280;20145;43.118;25.694;2023-02-20T14:31:33;100024.72;;;12.40;42.81
33845;BME280;20145;43.118;25.694;2023-02-20T14:34:08;100020.50;;;12.31;42.78
33845;BME280;20145;43.118;25.694;2023-02-20T14:37:04;100025.72;;;12.23;42.69
33845;BME280;20145;43.118;25.694;2023-02-20T14:40:02;100037.84;;;12.18;43.63
33845;BME280;20145;43.118;25.694;2023-02-20T14:42:30;100037.94;;;12.09;41.71
33845;BME280;20145;43.118;25.694;2023-02-20T14:45:02;100041.38;;;12.11;41.47
33845;BME280;20145;43.118;25.694;2023-02-20T14:47:28;100048.31;;;12.06;41.79
33845;BME280;20145;43.118;25.694;2023-02-20T14:50:09;100044.84;;;12.04;41.79
33845;BME280;20145;43.118;25.694;2023-02-20T14:52:39;100019.09;;;11.89;41.14
33845;BME280;20145;43.118;25.694;2023-02-20T14:55:05;100032.00;;;11.93;41.26
33845;BME280;20145;43.118;25.694;2023-02-20T14:57:33;100031.16;;;11.91;41.86
33845;BME280;20145;43.118;25.694;2023-02-20T15:02:47;100044.09;;;11.93;41.82
33845;BME280;20145;43.118;25.694;2023-02-20T15:05:18;100048.44;;;11.81;40.87
33845;BME280;20145;43.118;25.694;2023-02-20T15:07:45;100040.72;;;11.77;41.68
33845;BME280;20145;43.118;25.694;2023-02-20T15:13:26;100041.66;;;11.65;41.21